Huvudsida
METAR-TAF:

METAR-TAF

Flygplatser :

Åbo flygplats

Åbo, Finland

latitud: 60-31N, longitud: 022-16E, höjd: 49 m

Aktuellt väderrapport

Denna rapport gjordes för 23 minuter sedan, klockan 04:50 UTC
Vind 6 kt från väst, varierande mellan väst/sydväst och väst/nordväst
Temperatur 6°C
Fuktighet 93%
Tryck 1034 hPa
Sikt 10 km eller mer

METAR: EFTU 170450Z AUTO 26006KT 240V300 9999 OVC011/// 06/05 Q1034

Tid: 07:13 (05:13 UTC)

Väderprognos

Denna rapport gjordes för 2 timmar och 45 minuter sedan, klockan 02:28 UTC
Prognos gäller från 17 kl. 03 UTC till 18 kl. 03 UTC
Vind 10 kt från väst/sydväst
Sikt 10 km eller mer
Brutna moln på en höjd av 1500 ft
Temporärt
från 17 kl. 03 UTC till 17 kl. 06 UTC
Brutna moln på en höjd av 1300 ft
Blir
från 17 kl. 09 UTC till 17 kl. 11 UTC
Vind 9 kt från nordväst

TAF: EFTU 170228Z 1703/1803 25010KT 9999 BKN015 TEMPO 1703/1706 BKN013 BECMG 1709/1711 31009KT

Aktuella väderrapporter och prognoser från 4000 flygplatser (METAR- och TAF-rapporter).

De tillgängliga stationerna syns som gula och röda prickar på kartan.

För musen över prickarna för att se namnen på stationerna.

Klicka sedan för att få väderrapporter och prognoser.

För att ändra kartan: Klicka på de gröna knapparna med ett svart kors på för att zooma in; den gröna knappen med ett streck på för att zooma ut; eller på de gröna pilarna för angränsande kartor.


METAR-TAF: